Time;durP1;ratioP1;P1;durP2;ratioP2;P2;SDS_P1;SDS_P2;PMS_P1;PMS_P2;Temp;Humidity;BMP_temperature;BMP_pressure;BME280_temperature;BME280_humidity;BME280_pressure;Samples;Min_cycle;Max_cycle;Signal;HPM_P1;HPM_P2
2022/05/30 00:02:17;;;;;;;;;1.25;0.00;;;;;11.02;58.61;101403.47;5031753;28;10132;-65
2022/05/30 00:04:44;;;;;;;;;1.00;1.00;;;;;11.02;58.79;101396.25;5031403;28;10752;-64
2022/05/30 00:07:10;;;;;;;;;1.00;0.00;;;;;11.02;58.33;101396.25;5031079;28;10779;-65
2022/05/30 00:09:37;;;;;;;;;1.75;0.25;;;;;11.04;58.30;101396.91;5031854;28;10209;-65
2022/05/30 00:12:04;;;;;;;;;1.00;0.00;;;;;11.06;58.68;101399.41;5031307;28;10242;-65
2022/05/30 00:14:31;;;;;;;;;0.50;0.00;;;;;11.07;58.55;101393.84;5031462;28;10138;-65
2022/05/30 00:16:58;;;;;;;;;0.00;0.00;;;;;11.08;58.21;101389.28;5031244;28;10061;-65
2022/05/30 00:19:27;;;;;;;;;1.75;1.00;;;;;11.09;58.32;101394.47;5027564;28;10763;-65
2022/05/30 00:21:56;;;;;;;;;0.50;0.00;;;;;11.10;58.82;101389.94;5028003;28;10244;-65
2022/05/30 00:24:23;;;;;;;;;0.00;0.00;;;;;11.09;58.58;101388.25;5031425;28;10041;-65
2022/05/30 00:26:49;;;;;;;;;0.00;0.00;;;;;11.09;59.09;101393.66;5031158;28;10163;-64
2022/05/30 00:29:16;;;;;;;;;2.25;1.00;;;;;11.06;58.33;101385.94;5045994;28;10095;-65
2022/05/30 00:31:43;;;;;;;;;1.00;1.00;;;;;11.05;58.56;101389.66;5030774;28;9987;-65
2022/05/30 00:34:09;;;;;;;;;0.00;0.00;;;;;11.00;58.85;101375.91;5031082;28;10139;-64
2022/05/30 00:36:37;;;;;;;;;0.00;0.00;;;;;10.98;59.23;101383.31;5030786;28;10062;-64
2022/05/30 00:39:04;;;;;;;;;2.00;0.00;;;;;10.98;58.89;101386.00;5030859;28;10065;-65
2022/05/30 00:41:30;;;;;;;;;1.00;1.00;;;;;10.97;59.04;101376.25;5030631;28;10177;-65
2022/05/30 00:43:58;;;;;;;;;1.25;0.25;;;;;10.96;59.28;101382.69;5029652;28;10140;-66
2022/05/30 00:46:25;;;;;;;;;0.50;0.50;;;;;10.97;59.31;101381.66;5005650;28;10120;-64
2022/05/30 00:49:00;;;;;;;;;0.00;0.00;;;;;10.99;59.04;101379.63;5030644;28;10131;-63
2022/05/30 00:51:34;;;;;;;;;0.00;0.00;;;;;11.00;59.18;101378.59;5013236;28;10079;-64
2022/05/30 00:54:01;;;;;;;;;0.00;0.00;;;;;10.99;59.28;101380.47;5029051;28;10077;-65
2022/05/30 00:56:34;;;;;;;;;0.00;0.00;;;;;11.01;59.35;101372.19;5030571;28;9955;-64
2022/05/30 00:59:03;;;;;;;;;0.75;0.00;;;;;11.02;59.47;101376.53;5030886;28;10019;-64
2022/05/30 01:01:32;;;;;;;;;0.00;0.00;;;;;11.04;59.28;101371.81;5030700;28;10001;-64
2022/05/30 01:06:47;;;;;;;;;0.00;0.00;;;;;11.05;58.87;101370.78;5021830;28;10089;-65
2022/05/30 01:09:25;;;;;;;;;0.00;0.00;;;;;11.06;58.47;101373.31;5022782;28;10735;-65
2022/05/30 01:11:54;;;;;;;;;0.00;0.00;;;;;11.07;58.99;101374.16;5021437;28;10213;-66
2022/05/30 01:14:22;;;;;;;;;0.25;0.00;;;;;11.05;59.20;101379.72;5045747;28;9997;-63
2022/05/30 01:16:50;;;;;;;;;0.00;0.00;;;;;11.05;59.12;101368.09;5020851;28;10099;-66
2022/05/30 01:19:33;;;;;;;;;0.00;0.00;;;;;11.05;59.40;101370.78;5029121;28;10708;-64
2022/05/30 01:22:38;;;;;;;;;0.50;0.50;;;;;11.02;59.33;101363.94;5029157;28;10079;-65
2022/05/30 01:25:37;;;;;;;;;0.00;0.00;;;;;10.97;59.91;101371.72;5029083;28;10683;-63
2022/05/30 01:28:22;;;;;;;;;0.00;0.00;;;;;10.94;60.05;101368.53;5028642;28;10097;-67
2022/05/30 01:30:50;;;;;;;;;1.00;0.00;;;;;10.88;59.48;101365.56;5029048;28;10008;-64
2022/05/30 01:33:17;;;;;;;;;0.00;0.00;;;;;10.83;59.93;101367.16;5030190;28;10172;-64
2022/05/30 01:35:44;;;;;;;;;1.00;0.00;;;;;10.82;60.02;101360.09;5029031;28;10140;-64
2022/05/30 01:38:14;;;;;;;;;0.00;0.00;;;;;10.81;60.51;101358.41;5028856;28;10253;-63
2022/05/30 01:40:41;;;;;;;;;2.00;0.50;;;;;10.81;60.92;101358.41;5028892;28;10061;-65
2022/05/30 01:43:09;;;;;;;;;0.00;0.00;;;;;10.80;61.42;101356.75;5028858;28;10880;-63
2022/05/30 01:45:38;;;;;;;;;0.00;0.00;;;;;10.81;61.12;101361.94;5012804;28;10100;-62
2022/05/30 01:48:05;;;;;;;;;0.50;0.50;;;;;10.82;60.82;101360.09;5028684;28;10186;-62
2022/05/30 01:50:32;;;;;;;;;1.75;1.00;;;;;10.82;61.50;101357.41;5027964;28;10066;-63
2022/05/30 01:53:08;;;;;;;;;0.00;0.00;;;;;10.79;61.07;101361.28;5038149;28;10105;-64
2022/05/30 01:55:55;;;;;;;;;1.00;1.00;;;;;10.80;61.31;101357.56;5025294;28;10142;-64
2022/05/30 01:58:22;;;;;;;;;0.25;0.25;;;;;10.80;61.15;101348.66;5028649;28;10203;-64
2022/05/30 02:01:22;;;;;;;;;1.00;1.00;;;;;10.79;61.48;101339.75;5024573;28;10313;-63
2022/05/30 02:03:51;;;;;;;;;0.25;0.25;;;;;10.81;61.58;101350.31;5028718;28;10403;-65
2022/05/30 02:06:23;;;;;;;;;0.00;0.00;;;;;10.78;61.54;101348.84;5015264;28;10681;-65
2022/05/30 02:08:51;;;;;;;;;0.75;0.75;;;;;10.73;61.66;101335.09;5030167;28;10185;-64
2022/05/30 02:11:20;;;;;;;;;0.75;0.75;;;;;10.72;61.47;101351.44;5029695;28;11289;-65
2022/05/30 02:13:46;;;;;;;;;0.25;0.25;;;;;10.70;61.54;101342.72;5049863;28;10196;-64
2022/05/30 02:19:24;;;;;;;;;1.00;1.00;;;;;10.59;62.70;101346.66;5032242;28;10367;-65
2022/05/30 02:21:51;;;;;;;;;1.50;1.00;;;;;10.57;62.45;101346.00;5048940;28;10155;-65
2022/05/30 02:24:17;;;;;;;;;2.00;0.75;;;;;10.56;62.26;101344.34;5033093;28;10134;-65
2022/05/30 02:26:45;;;;;;;;;1.25;1.00;;;;;10.54;62.23;101341.84;5034126;28;10200;-65
2022/05/30 02:29:17;;;;;;;;;4.75;1.00;;;;;10.52;62.27;101343.84;5042694;28;10382;-65
2022/05/30 02:31:52;;;;;;;;;0.50;0.50;;;;;10.50;62.36;101345.91;5032551;28;10923;-65
2022/05/30 02:37:04;;;;;;;;;1.00;1.00;;;;;10.43;63.31;101349.50;5032745;28;10229;-65
2022/05/30 02:39:34;;;;;;;;;2.75;1.00;;;;;10.40;63.43;101346.13;5032678;28;10930;-65
2022/05/30 02:42:19;;;;;;;;;1.00;1.00;;;;;10.39;63.13;101349.84;5034205;28;10361;-65
2022/05/30 02:44:46;;;;;;;;;1.00;0.00;;;;;10.37;63.29;101349.22;5032740;28;10200;-65
2022/05/30 02:47:12;;;;;;;;;0.00;0.00;;;;;10.36;62.60;101354.75;5039600;28;10297;-65
2022/05/30 02:49:44;;;;;;;;;1.00;1.00;;;;;10.34;62.56;101352.25;5024524;28;10376;-65
2022/05/30 02:52:11;;;;;;;;;0.25;0.00;;;;;10.34;62.70;101354.13;5033663;28;11117;-65
2022/05/30 02:54:37;;;;;;;;;0.75;0.75;;;;;10.33;62.88;101355.97;5030711;28;10445;-65
2022/05/30 02:57:27;;;;;;;;;1.25;1.25;;;;;10.35;63.32;101347.72;5033368;28;10407;-65
2022/05/30 02:59:54;;;;;;;;;1.00;1.00;;;;;10.35;63.59;101353.09;5048809;28;10384;-65
2022/05/30 03:02:21;;;;;;;;;0.75;0.75;;;;;10.34;63.44;101349.56;5048558;28;10391;-65
2022/05/30 03:04:48;;;;;;;;;1.00;0.00;;;;;10.37;63.64;101353.72;5026081;28;10242;-65
2022/05/30 03:07:14;;;;;;;;;1.00;0.25;;;;;10.35;63.39;101345.84;5032258;28;10290;-64
2022/05/30 03:09:43;;;;;;;;;4.75;1.00;;;;;10.33;63.24;101353.28;5016370;28;10223;-65
2022/05/30 03:12:36;;;;;;;;;0.00;0.00;;;;;10.32;63.57;101350.75;5031261;28;10309;-65
2022/05/30 03:15:03;;;;;;;;;0.25;0.25;;;;;10.30;63.43;101342.88;5033794;28;10277;-64
2022/05/30 03:17:29;;;;;;;;;0.00;0.00;;;;;10.29;63.92;101346.59;5048013;28;10284;-65
2022/05/30 03:19:56;;;;;;;;;1.00;1.00;;;;;10.28;63.96;101341.38;5031502;28;10980;-65
2022/05/30 03:22:23;;;;;;;;;0.00;0.00;;;;;10.29;63.55;101338.50;5032340;28;10289;-64
2022/05/30 03:25:10;;;;;;;;;1.00;0.25;;;;;10.30;64.00;101334.81;5019437;28;10369;-65
2022/05/30 03:27:37;;;;;;;;;0.00;0.00;;;;;10.34;63.71;101336.13;5024291;28;10322;-64
2022/05/30 03:30:04;;;;;;;;;3.25;0.00;;;;;10.35;63.49;101329.72;5031127;28;10220;-65
2022/05/30 03:32:31;;;;;;;;;0.00;0.00;;;;;10.38;62.78;101337.44;5027748;28;11068;-64
2022/05/30 03:34:57;;;;;;;;;0.75;0.00;;;;;10.43;63.37;101336.88;5030991;28;10914;-64
2022/05/30 03:37:26;;;;;;;;;0.00;0.00;;;;;10.46;63.75;101331.16;5031269;28;10205;-64
2022/05/30 03:40:09;;;;;;;;;0.00;0.00;;;;;10.49;63.36;101329.91;5045808;28;10206;-64
2022/05/30 03:42:54;;;;;;;;;0.50;0.25;;;;;10.50;63.46;101328.94;5032257;28;10309;-64
2022/05/30 03:45:22;;;;;;;;;0.25;0.00;;;;;10.49;63.96;101335.31;5031209;28;10339;-64
2022/05/30 03:47:48;;;;;;;;;1.00;1.00;;;;;10.47;64.05;101335.50;5031152;28;10218;-62
2022/05/30 03:50:21;;;;;;;;;1.00;1.00;;;;;10.44;64.46;101343.94;5025439;28;10292;-64
2022/05/30 03:52:53;;;;;;;;;1.00;1.00;;;;;10.43;64.58;101344.13;5031143;28;10077;-64
2022/05/30 03:55:22;;;;;;;;;0.00;0.00;;;;;10.40;64.63;101340.75;5031024;28;10125;-64
2022/05/30 03:57:50;;;;;;;;;0.00;0.00;;;;;10.40;64.45;101342.63;5031218;28;10269;-63
2022/05/30 04:00:20;;;;;;;;;0.00;0.00;;;;;10.43;64.92;101342.25;5031206;28;10351;-63
2022/05/30 04:02:52;;;;;;;;;0.00;0.00;;;;;10.44;65.01;101337.72;5030945;28;11187;-64
2022/05/30 04:05:20;;;;;;;;;0.00;0.00;;;;;10.40;64.31;101331.84;5031241;28;10334;-64
2022/05/30 04:07:47;;;;;;;;;0.00;0.00;;;;;10.36;65.13;101331.38;5021763;28;10129;-64
2022/05/30 04:10:42;;;;;;;;;0.00;0.00;;;;;10.32;65.11;101326.53;5027063;28;10261;-64
2022/05/30 04:13:11;;;;;;;;;0.00;0.00;;;;;10.28;65.34;101328.75;5032146;28;10466;-64
2022/05/30 04:16:06;;;;;;;;;1.00;1.00;;;;;10.24;65.81;101332.78;5027745;28;10306;-64
2022/05/30 04:18:32;;;;;;;;;0.50;0.50;;;;;10.21;65.61;101330.47;5030397;28;10839;-64
2022/05/30 04:20:59;;;;;;;;;0.00;0.00;;;;;10.24;65.41;101324.72;5031806;28;10210;-64
2022/05/30 04:23:25;;;;;;;;;2.00;0.00;;;;;10.26;65.65;101325.41;5030641;28;10134;-64
2022/05/30 04:25:55;;;;;;;;;0.25;0.25;;;;;10.27;66.02;101327.09;5030529;28;10210;-65
2022/05/30 04:28:22;;;;;;;;;1.00;1.00;;;;;10.32;66.07;101322.00;5029063;28;10287;-61
2022/05/30 04:31:10;;;;;;;;;0.25;0.00;;;;;10.35;66.47;101327.00;5030494;28;11037;-63
2022/05/30 04:33:41;;;;;;;;;1.00;1.00;;;;;10.39;66.11;101327.50;5002391;28;10146;-61
2022/05/30 04:36:14;;;;;;;;;1.00;1.00;;;;;10.44;66.27;101333.16;5030106;28;10202;-63
2022/05/30 04:38:46;;;;;;;;;1.00;1.00;;;;;10.45;66.52;101329.47;5022869;28;10325;-62
2022/05/30 04:41:31;;;;;;;;;1.75;1.75;;;;;10.49;66.36;101330.78;5031208;28;10282;-63
2022/05/30 04:44:16;;;;;;;;;0.00;0.00;;;;;10.52;66.28;101329.56;5030551;28;10069;-64
2022/05/30 04:47:11;;;;;;;;;2.00;1.00;;;;;10.56;66.16;101330.88;5030845;28;10286;-63
2022/05/30 04:49:43;;;;;;;;;1.00;1.00;;;;;10.60;66.14;101327.63;5028556;28;10334;-63
2022/05/30 04:52:09;;;;;;;;;1.75;1.00;;;;;10.64;65.89;101336.19;5026417;28;10147;-64
2022/05/30 04:54:36;;;;;;;;;0.75;0.75;;;;;10.66;66.11;101330.63;5027750;28;10065;-64
2022/05/30 04:57:15;;;;;;;;;1.00;1.00;;;;;10.71;66.37;101331.75;5029268;28;10250;-64
2022/05/30 04:59:50;;;;;;;;;1.00;1.00;;;;;10.77;65.72;101325.63;5027306;28;10037;-64
2022/05/30 05:02:17;;;;;;;;;1.00;1.00;;;;;10.84;66.06;101323.88;5026113;28;10218;-64
2022/05/30 05:04:47;;;;;;;;;2.00;1.00;;;;;10.89;64.86;101326.00;5028595;28;10128;-65
2022/05/30 05:07:15;;;;;;;;;2.75;1.00;;;;;10.94;64.95;101333.53;5026070;28;10103;-64
2022/05/30 05:09:55;;;;;;;;;1.00;1.00;;;;;10.96;64.59;101332.34;5028200;28;10064;-64
2022/05/30 05:12:53;;;;;;;;;1.75;1.75;;;;;10.97;64.16;101328.59;5030249;28;10005;-64
2022/05/30 05:15:38;;;;;;;;;1.50;1.50;;;;;10.97;64.15;101325.91;5030698;28;10054;-65
2022/05/30 05:18:11;;;;;;;;;0.00;0.00;;;;;11.00;64.01;101338.19;5031728;28;10784;-62
2022/05/30 05:20:41;;;;;;;;;1.00;1.00;;;;;11.02;63.65;101330.75;5029189;28;10772;-64
2022/05/30 05:23:08;;;;;;;;;0.00;0.00;;;;;11.06;63.79;101340.13;5045407;28;10019;-63
2022/05/30 05:25:49;;;;;;;;;2.25;1.25;;;;;11.10;64.10;101334.22;5029173;28;10046;-63
2022/05/30 05:28:32;;;;;;;;;1.25;1.25;;;;;11.20;63.84;101335.78;5045512;28;10133;-67
2022/05/30 05:30:58;;;;;;;;;3.75;1.75;;;;;11.37;63.73;101335.38;5030416;28;10139;-65
2022/05/30 05:33:25;;;;;;;;;1.00;1.00;;;;;11.60;63.49;101337.13;5018547;28;10911;-65
2022/05/30 05:35:51;;;;;;;;;1.00;1.00;;;;;11.82;62.32;101341.53;5009257;28;9862;-64
2022/05/30 05:38:20;;;;;;;;;3.00;1.00;;;;;12.09;62.15;101344.56;5025420;28;9817;-64
2022/05/30 05:41:09;;;;;;;;;1.25;0.50;;;;;12.30;60.62;101341.03;5027229;28;9744;-64
2022/05/30 05:44:02;;;;;;;;;2.00;2.00;;;;;12.48;59.58;101343.28;5025973;28;10581;-64
2022/05/30 05:46:31;;;;;;;;;1.25;1.25;;;;;12.59;59.16;101343.56;5028716;28;9594;-65
2022/05/30 05:48:59;;;;;;;;;1.00;1.00;;;;;12.66;57.86;101343.63;5022976;28;9619;-65
2022/05/30 05:51:27;;;;;;;;;2.00;2.00;;;;;12.67;57.41;101342.59;5037789;28;9595;-64
2022/05/30 05:53:59;;;;;;;;;1.00;1.00;;;;;12.72;57.31;101340.16;5036036;28;9618;-64
2022/05/30 05:56:29;;;;;;;;;2.00;2.00;;;;;12.83;57.20;101341.47;5009656;28;9617;-64
2022/05/30 05:58:56;;;;;;;;;1.00;1.00;;;;;12.91;57.38;101351.28;5021573;28;9612;-63
2022/05/30 06:01:32;;;;;;;;;1.00;1.00;;;;;12.92;56.81;101344.84;5044672;28;9548;-63
2022/05/30 06:04:03;;;;;;;;;1.25;1.00;;;;;12.96;56.58;101346.13;5016101;28;9605;-63
2022/05/30 06:06:43;;;;;;;;;0.00;0.00;;;;;12.93;56.73;101343.84;5023688;28;9578;-63
2022/05/30 06:09:28;;;;;;;;;2.75;1.00;;;;;12.89;56.47;101346.09;5015288;28;9543;-62
2022/05/30 06:12:00;;;;;;;;;1.00;1.00;;;;;12.87;56.00;101343.56;5030495;28;9516;-64
2022/05/30 06:14:29;;;;;;;;;0.00;0.00;;;;;12.88;56.15;101344.41;5028887;28;9530;-63
2022/05/30 06:16:56;;;;;;;;;1.00;1.00;;;;;12.91;55.85;101348.59;5027981;28;9514;-64
2022/05/30 06:19:25;;;;;;;;;0.00;0.00;;;;;12.85;55.56;101350.22;5028458;28;9512;-64
2022/05/30 06:21:52;;;;;;;;;0.00;0.00;;;;;12.76;55.01;101351.38;5029951;28;9533;-63
2022/05/30 06:24:18;;;;;;;;;0.50;0.50;;;;;12.62;55.05;101343.19;5028560;28;9459;-64
2022/05/30 06:27:05;;;;;;;;;0.00;0.00;;;;;12.48;55.27;101351.38;5030085;28;9505;-63
2022/05/30 06:29:51;;;;;;;;;0.00;0.00;;;;;12.38;55.91;101349.00;5028957;28;9609;-64
2022/05/30 06:32:18;;;;;;;;;0.00;0.00;;;;;12.31;55.73;101362.41;5015850;28;9610;-64
2022/05/30 06:35:14;;;;;;;;;1.00;1.00;;;;;12.24;55.92;101356.16;5003398;28;9682;-64
2022/05/30 06:37:42;;;;;;;;;0.75;0.00;;;;;12.23;55.87;101351.75;5028119;28;9749;-63
2022/05/30 06:40:10;;;;;;;;;0.00;0.00;;;;;12.21;55.91;101356.53;5027980;28;9657;-63
2022/05/30 06:42:51;;;;;;;;;2.00;1.00;;;;;12.09;55.43;101350.78;5028044;28;9683;-66
2022/05/30 06:45:38;;;;;;;;;0.00;0.00;;;;;12.06;55.26;101356.56;5018664;28;9838;-66
2022/05/30 06:48:23;;;;;;;;;0.00;0.00;;;;;12.09;55.78;101347.25;5029745;28;10329;-65
2022/05/30 06:50:56;;;;;;;;;0.00;0.00;;;;;12.13;55.97;101351.25;5030777;28;9651;-63
2022/05/30 06:53:23;;;;;;;;;0.00;0.00;;;;;12.16;55.83;101350.03;5027401;28;9672;-63
2022/05/30 06:55:52;;;;;;;;;0.00;0.00;;;;;12.18;55.56;101348.81;5030091;28;9530;-63
2022/05/30 06:58:20;;;;;;;;;1.00;1.00;;;;;12.22;55.83;101350.09;5031867;28;9590;-63
2022/05/30 07:00:48;;;;;;;;;0.00;0.00;;;;;12.24;55.31;101353.44;5032309;28;9675;-63
2022/05/30 07:03:29;;;;;;;;;1.00;0.00;;;;;12.24;54.94;101361.53;5033652;28;9649;-64
2022/05/30 07:06:17;;;;;;;;;0.75;0.75;;;;;12.26;55.27;101359.47;5032982;28;9874;-66
2022/05/30 07:09:09;;;;;;;;;1.50;1.00;;;;;12.26;55.74;101366.75;5029528;28;9998;-65
2022/05/30 07:11:49;;;;;;;;;0.00;0.00;;;;;12.19;55.85;101363.13;5031868;28;9810;-64
2022/05/30 07:14:19;;;;;;;;;0.00;0.00;;;;;12.09;55.65;101356.19;5031949;28;9632;-64
2022/05/30 07:16:46;;;;;;;;;0.75;0.75;;;;;11.99;55.05;101362.91;5031645;28;9586;-65
2022/05/30 07:19:13;;;;;;;;;0.00;0.00;;;;;11.91;55.06;101368.44;5033254;28;9679;-64
2022/05/30 07:21:52;;;;;;;;;0.00;0.00;;;;;11.76;55.17;101363.06;5030665;28;9681;-65
2022/05/30 07:24:39;;;;;;;;;0.00;0.00;;;;;11.74;55.69;101367.78;5011961;28;9684;-65
2022/05/30 07:27:24;;;;;;;;;0.00;0.00;;;;;11.77;55.47;101370.13;5032667;28;9866;-65
2022/05/30 07:30:09;;;;;;;;;0.00;0.00;;;;;11.75;55.49;101364.91;5030877;28;9635;-64
2022/05/30 07:33:11;;;;;;;;;0.00;0.00;;;;;11.73;55.41;101377.75;5032859;28;10488;-64
2022/05/30 07:35:56;;;;;;;;;0.00;0.00;;;;;11.72;56.06;101368.00;5032504;28;10569;-65
2022/05/30 07:38:38;;;;;;;;;0.00;0.00;;;;;11.73;57.11;101368.81;5031008;28;9885;-64
2022/05/30 07:41:25;;;;;;;;;0.00;0.00;;;;;11.75;57.09;101369.44;5032779;28;9860;-64
2022/05/30 07:44:02;;;;;;;;;0.00;0.00;;;;;11.75;57.45;101372.16;5030763;28;9871;-64
2022/05/30 07:46:39;;;;;;;;;0.00;0.00;;;;;11.78;58.04;101369.06;5031030;28;9734;-64
2022/05/30 07:49:11;;;;;;;;;0.25;0.25;;;;;11.78;57.87;101372.59;5032119;28;9843;-64
2022/05/30 07:51:57;;;;;;;;;1.00;1.00;;;;;11.82;58.20;101371.19;5027416;28;9737;-64
2022/05/30 07:54:33;;;;;;;;;2.50;1.00;;;;;11.87;58.36;101379.63;5032037;28;9676;-64
2022/05/30 07:57:06;;;;;;;;;0.00;0.00;;;;;11.93;58.05;101385.28;5028170;28;9762;-64
2022/05/30 07:59:37;;;;;;;;;0.00;0.00;;;;;11.95;58.12;101386.78;5030931;28;9844;-64
2022/05/30 08:02:06;;;;;;;;;0.00;0.00;;;;;12.02;58.03;101381.44;5030362;28;9669;-64
2022/05/30 08:04:36;;;;;;;;;1.00;1.00;;;;;12.05;57.76;101381.88;5047050;28;9744;-64
2022/05/30 08:07:21;;;;;;;;;0.00;0.00;;;;;12.06;57.51;101380.03;5031946;28;9688;-64
2022/05/30 08:09:50;;;;;;;;;1.25;1.25;;;;;12.05;56.96;101381.06;5031530;28;9750;-63
2022/05/30 08:12:23;;;;;;;;;1.00;1.00;;;;;12.01;56.93;101385.16;5031748;28;9543;-65
2022/05/30 08:14:56;;;;;;;;;1.00;1.00;;;;;11.99;56.99;101381.81;5032280;28;9748;-63
2022/05/30 08:17:37;;;;;;;;;1.25;1.25;;;;;11.99;55.76;101387.19;5030202;28;9615;-63
2022/05/30 08:20:07;;;;;;;;;0.75;0.75;;;;;11.96;53.89;101379.50;5031922;28;9811;-62
2022/05/30 08:22:35;;;;;;;;;0.00;0.00;;;;;12.02;53.69;101379.56;5029097;28;10513;-64
2022/05/30 08:25:08;;;;;;;;;0.00;0.00;;;;;12.16;53.37;101379.72;5030219;28;9679;-64
2022/05/30 08:27:35;;;;;;;;;0.00;0.00;;;;;12.24;53.24;101383.13;5030087;28;10443;-64
2022/05/30 08:30:05;;;;;;;;;2.00;0.00;;;;;12.31;53.30;101386.72;5045620;28;9723;-63
2022/05/30 08:32:36;;;;;;;;;0.00;0.00;;;;;12.36;52.69;101389.69;5030039;28;9605;-63
2022/05/30 08:35:22;;;;;;;;;1.00;1.00;;;;;12.43;53.05;101381.63;5031610;28;9745;-65
2022/05/30 08:37:49;;;;;;;;;1.25;1.00;;;;;12.46;53.08;101389.38;5016745;28;9712;-65
2022/05/30 08:43:23;;;;;;;;;1.00;0.00;;;;;12.53;54.52;101390.28;5017462;28;9624;-65
2022/05/30 08:46:15;;;;;;;;;1.00;0.00;;;;;12.52;55.01;101388.59;5028811;28;9515;-65
2022/05/30 08:49:02;;;;;;;;;1.00;1.00;;;;;12.55;54.98;101395.47;5029934;28;9805;-65
2022/05/30 08:51:47;;;;;;;;;0.00;0.00;;;;;12.54;55.46;101397.34;5045660;28;10514;-62
2022/05/30 08:54:38;;;;;;;;;1.50;1.50;;;;;12.48;55.84;101398.13;5029882;28;9599;-63
2022/05/30 08:57:53;;;;;;;;;0.25;0.25;;;;;12.47;56.55;101404.53;5022941;28;9768;-64
2022/05/30 09:00:30;;;;;;;;;0.00;0.00;;;;;12.52;57.16;101398.56;5029280;28;10445;-64
2022/05/30 09:03:24;;;;;;;;;0.00;0.00;;;;;12.44;56.57;101401.41;5030423;28;9602;-63
2022/05/30 09:06:04;;;;;;;;;0.25;0.25;;;;;12.36;56.39;101403.19;5013283;28;9665;-65
2022/05/30 09:08:41;;;;;;;;;1.25;1.00;;;;;12.31;56.78;101404.78;5026119;28;9670;-64
2022/05/30 09:11:35;;;;;;;;;0.00;0.00;;;;;12.25;56.82;101414.50;4987544;28;10683;-64
2022/05/30 09:14:21;;;;;;;;;0.75;0.50;;;;;12.25;57.43;101405.56;5029907;28;9601;-65
2022/05/30 09:16:53;;;;;;;;;0.50;0.50;;;;;12.23;57.28;101408.44;5029112;28;9714;-65
2022/05/30 09:19:23;;;;;;;;;0.00;0.00;;;;;12.16;58.01;101404.03;5029692;28;9612;-65
2022/05/30 09:21:54;;;;;;;;;0.00;0.00;;;;;12.13;57.79;101402.53;5030981;28;10366;-64
2022/05/30 09:24:22;;;;;;;;;0.00;0.00;;;;;12.15;57.22;101405.03;5024138;28;9817;-65
2022/05/30 09:26:48;;;;;;;;;0.00;0.00;;;;;12.14;56.09;101412.28;5030606;28;9523;-64
2022/05/30 09:29:27;;;;;;;;;0.00;0.00;;;;;12.15;55.67;101397.75;5011747;28;9862;-64
2022/05/30 09:32:37;;;;;;;;;1.00;1.00;;;;;12.15;55.02;101405.84;5030690;28;9558;-64
2022/05/30 09:35:41;;;;;;;;;0.00;0.00;;;;;12.16;54.88;101404.84;5028072;28;9604;-64
2022/05/30 09:38:26;;;;;;;;;1.00;1.00;;;;;12.28;55.08;101403.31;5030208;28;9529;-64
2022/05/30 09:41:17;;;;;;;;;0.00;0.00;;;;;12.37;54.50;101406.72;5028965;28;9601;-64
2022/05/30 09:44:03;;;;;;;;;1.00;1.00;;;;;12.48;54.05;101405.38;5029248;28;9679;-64
2022/05/30 09:46:50;;;;;;;;;1.00;0.00;;;;;12.55;54.16;101408.97;5012991;28;9690;-65
2022/05/30 09:49:55;;;;;;;;;1.00;0.00;;;;;12.59;52.89;101410.25;5030306;28;9713;-64
2022/05/30 09:52:25;;;;;;;;;0.00;0.00;;;;;12.53;51.46;101417.28;5029244;28;9548;-64
2022/05/30 09:54:54;;;;;;;;;0.75;0.00;;;;;12.48;50.97;101410.78;5012599;28;9831;-64
2022/05/30 09:57:27;;;;;;;;;1.00;1.00;;;;;12.49;51.86;101412.47;5025976;28;9625;-63
2022/05/30 10:00:16;;;;;;;;;0.25;0.25;;;;;12.57;51.56;101415.03;5028271;28;9644;-64
2022/05/30 10:02:48;;;;;;;;;1.00;1.00;;;;;12.65;52.03;101414.06;5028980;28;9535;-63
2022/05/30 10:05:19;;;;;;;;;0.00;0.00;;;;;12.72;52.14;101415.78;5028587;28;9533;-64
2022/05/30 10:07:52;;;;;;;;;0.75;0.00;;;;;12.77;51.50;101416.03;5025429;28;10321;-63
2022/05/30 10:10:40;;;;;;;;;1.25;0.25;;;;;12.83;51.21;101411.72;5023075;28;10253;-64
2022/05/30 10:13:10;;;;;;;;;1.00;1.00;;;;;12.80;50.67;101412.09;5023267;28;9603;-62
2022/05/30 10:16:01;;;;;;;;;1.00;1.00;;;;;12.81;50.63;101411.91;5030195;28;9601;-63
2022/05/30 10:18:34;;;;;;;;;1.00;1.00;;;;;12.89;50.36;101410.13;5030373;28;9525;-63
2022/05/30 10:21:17;;;;;;;;;1.00;1.00;;;;;12.92;49.99;101417.81;5014363;28;9545;-63
2022/05/30 10:31:13;;;;;;;;;2.00;1.25;;;;;12.98;49.58;101422.44;5034219;28;9509;-63
2022/05/30 10:34:05;;;;;;;;;1.00;1.00;;;;;13.02;49.17;101427.25;5031653;28;9534;-64
2022/05/30 10:36:52;;;;;;;;;0.75;0.75;;;;;13.07;49.35;101421.25;5030256;28;10250;-63
2022/05/30 10:39:51;;;;;;;;;0.50;0.50;;;;;13.11;49.19;101422.53;5016220;28;9566;-64
2022/05/30 10:42:48;;;;;;;;;0.00;0.00;;;;;13.22;48.85;101422.00;5025182;28;9545;-63
2022/05/30 10:45:26;;;;;;;;;1.00;1.00;;;;;13.32;48.42;101413.56;5041822;28;9298;-65
2022/05/30 10:47:55;;;;;;;;;3.00;1.25;;;;;13.36;48.43;101423.78;5048489;28;9551;-65
2022/05/30 10:50:42;;;;;;;;;2.00;2.00;;;;;13.44;48.72;101419.25;5026901;28;9532;-65
2022/05/30 10:53:44;;;;;;;;;2.00;1.50;;;;;13.60;48.75;101419.75;5015548;28;10327;-64
2022/05/30 10:56:35;;;;;;;;;0.75;0.75;;;;;13.76;48.18;101420.47;5023605;28;9579;-65
2022/05/30 10:59:28;;;;;;;;;1.25;1.00;;;;;13.78;48.04;101416.53;5029851;28;9527;-65
2022/05/30 11:02:03;;;;;;;;;2.00;2.00;;;;;13.83;47.81;101419.47;5031645;28;9617;-65
2022/05/30 11:04:48;;;;;;;;;1.00;1.00;;;;;13.97;47.64;101419.50;5048668;28;9487;-64
2022/05/30 11:07:45;;;;;;;;;0.00;0.00;;;;;14.04;47.78;101412.25;5024495;28;9470;-65
2022/05/30 11:10:12;;;;;;;;;1.00;1.00;;;;;14.05;48.16;101422.03;5029947;28;10067;-65
2022/05/30 11:12:43;;;;;;;;;0.00;0.00;;;;;14.04;48.40;101418.50;5031734;28;9310;-65
2022/05/30 11:15:27;;;;;;;;;0.00;0.00;;;;;13.94;48.08;101423.47;5031771;28;9377;-65
2022/05/30 11:18:51;;;;;;;;;0.00;0.00;;;;;13.81;48.71;101421.56;5032765;28;9462;-65
2022/05/30 11:22:00;;;;;;;;;0.00;0.00;;;;;13.73;49.08;101434.38;5029968;28;9280;-65
2022/05/30 11:24:27;;;;;;;;;0.00;0.00;;;;;13.54;50.91;101438.69;5029434;28;10034;-63
2022/05/30 11:27:02;;;;;;;;;0.00;0.00;;;;;13.44;52.12;101438.19;5032747;28;9439;-65
2022/05/30 11:29:43;;;;;;;;;1.67;0.33;;;;;13.32;52.58;101436.03;5032951;28;9316;-65
2022/05/30 11:32:41;;;;;;;;;0.75;0.75;;;;;13.34;52.49;101425.84;5032486;28;9440;-65
2022/05/30 11:35:29;;;;;;;;;0.00;0.00;;;;;13.48;52.65;101431.34;5032912;28;9526;-65
2022/05/30 11:38:26;;;;;;;;;0.00;0.00;;;;;13.78;52.35;101437.34;5031821;28;9358;-65
2022/05/30 11:41:27;;;;;;;;;1.00;1.00;;;;;13.96;52.44;101439.50;5028265;28;9374;-65
2022/05/30 11:44:37;;;;;;;;;1.00;1.00;;;;;14.02;51.99;101449.53;5032507;28;9467;-65
2022/05/30 11:47:15;;;;;;;;;1.00;1.00;;;;;14.01;52.18;101450.53;5027587;28;9387;-65
2022/05/30 11:50:03;;;;;;;;;0.00;0.00;;;;;13.98;52.29;101445.56;5031551;28;9469;-64
2022/05/30 11:52:59;;;;;;;;;0.33;0.00;;;;;14.12;52.88;101446.44;5032008;28;9360;-65
2022/05/30 11:55:34;;;;;;;;;0.00;0.00;;;;;14.18;52.44;101451.03;5030863;28;10078;-65
2022/05/30 11:58:15;;;;;;;;;0.67;0.67;;;;;14.20;52.05;101457.09;5032417;28;10028;-65
2022/05/30 12:00:47;;;;;;;;;0.00;0.00;;;;;14.23;52.59;101453.97;5032103;28;9392;-65
2022/05/30 12:03:47;;;;;;;;;0.00;0.00;;;;;14.10;52.42;101452.06;5023573;28;9301;-65
2022/05/30 12:06:33;;;;;;;;;0.00;0.00;;;;;14.06;51.47;101454.34;5027857;28;9390;-66
2022/05/30 12:09:15;;;;;;;;;2.00;0.00;;;;;14.08;50.76;101446.00;5032277;28;9054;-64
2022/05/30 12:11:50;;;;;;;;;1.33;0.00;;;;;14.17;51.64;101443.94;5031326;28;9286;-62
2022/05/30 12:14:49;;;;;;;;;0.00;0.00;;;;;14.21;51.25;101446.03;5032209;28;9228;-63
2022/05/30 12:17:28;;;;;;;;;0.67;0.67;;;;;14.29;49.85;101443.16;5031926;28;9182;-66
2022/05/30 12:25:53;;;;;;;;;0.00;0.00;;;;;14.41;49.65;101439.84;5030833;28;9414;-65
2022/05/30 12:28:29;;;;;;;;;0.00;0.00;;;;;14.47;49.04;101439.88;5031986;28;9289;-65
2022/05/30 12:30:58;;;;;;;;;0.00;0.00;;;;;14.47;48.45;101439.03;5039526;28;9226;-65
2022/05/30 12:33:45;;;;;;;;;0.00;0.00;;;;;14.52;47.99;101440.13;5029645;28;9457;-67
2022/05/30 12:36:16;;;;;;;;;0.00;0.00;;;;;14.50;47.51;101434.09;5031892;28;9227;-62
2022/05/30 12:38:57;;;;;;;;;0.00;0.00;;;;;14.56;47.61;101435.97;5031323;28;9142;-64